Time;durP1;ratioP1;P1;durP2;ratioP2;P2;SDS_P1;SDS_P2;PMS_P1;PMS_P2;Temp;Humidity;BMP_temperature;BMP_pressure;BME280_temperature;BME280_humidity;BME280_pressure;Samples;Min_cycle;Max_cycle;Signal;HPM_P1;HPM_P2
2021/10/12 00:01:08;;;;;;;18.85;4.57;;;;;;;11.07;81.98;102250.09;5030145;28;20045;-69
2021/10/12 00:03:35;;;;;;;14.75;4.00;;;;;;;10.94;81.26;102242.38;5034974;28;20049;-69
2021/10/12 00:06:03;;;;;;;17.05;4.45;;;;;;;10.95;81.85;102244.84;5017116;28;20053;-69
2021/10/12 00:08:30;;;;;;;14.68;4.30;;;;;;;11.10;81.07;102232.97;5034950;28;20512;-68
2021/10/12 00:10:57;;;;;;;25.52;4.25;;;;;;;11.02;81.22;102237.13;5034873;28;20049;-68
2021/10/12 00:13:24;;;;;;;16.55;4.28;;;;;;;11.14;80.80;102245.09;5034963;28;20057;-69
2021/10/12 00:15:52;;;;;;;18.80;4.32;;;;;;;10.98;81.92;102249.81;5034511;28;20529;-69
2021/10/12 00:18:19;;;;;;;13.20;3.83;;;;;;;10.90;81.69;102255.06;5034572;28;20045;-69
2021/10/12 00:20:47;;;;;;;18.98;4.40;;;;;;;11.16;81.18;102248.38;5034611;28;20056;-69
2021/10/12 00:23:14;;;;;;;16.42;4.28;;;;;;;10.91;81.43;102251.22;5035258;28;20065;-68
2021/10/12 00:25:41;;;;;;;13.90;3.65;;;;;;;10.86;82.56;102245.72;5034997;28;20049;-69
2021/10/12 00:28:09;;;;;;;14.50;4.00;;;;;;;11.30;81.01;102239.25;5034697;28;20412;-69
2021/10/12 00:30:37;;;;;;;16.38;4.22;;;;;;;11.26;80.41;102248.38;5034565;28;20049;-69
2021/10/12 00:33:04;;;;;;;18.50;4.43;;;;;;;11.07;80.78;102255.59;5034538;28;20065;-68
2021/10/12 00:35:32;;;;;;;14.90;4.25;;;;;;;10.61;82.90;102237.47;5032560;28;20600;-69
2021/10/12 00:38:00;;;;;;;12.50;3.28;;;;;;;10.74;83.43;102228.66;5020848;28;20045;-70
2021/10/12 00:40:27;;;;;;;13.65;3.60;;;;;;;11.00;81.97;102230.25;5055260;28;20052;-70
2021/10/12 00:42:54;;;;;;;13.35;4.15;;;;;;;11.42;80.17;102238.09;5058301;28;20053;-69
2021/10/12 00:45:24;;;;;;;13.00;3.45;;;;;;;11.55;78.80;102235.56;5058287;28;20053;-69
2021/10/12 00:47:59;;;;;;;15.93;3.90;;;;;;;11.81;78.05;102228.84;5020632;28;20045;-69
2021/10/12 00:50:28;;;;;;;12.02;4.20;;;;;;;11.83;77.43;102234.06;5019592;28;20050;-68
2021/10/12 00:52:56;;;;;;;18.38;4.20;;;;;;;11.52;78.76;102213.22;5037180;28;20049;-69
2021/10/12 00:55:23;;;;;;;13.55;3.90;;;;;;;11.64;78.79;102211.81;5038122;28;20072;-69
2021/10/12 00:57:51;;;;;;;16.38;3.95;;;;;;;11.84;77.92;102205.34;5037868;28;20058;-69
2021/10/12 01:00:18;;;;;;;12.05;3.83;;;;;;;11.66;77.88;102209.59;5038048;28;20517;-70
2021/10/12 01:02:46;;;;;;;13.80;4.28;;;;;;;11.44;78.83;102211.88;5037962;28;20056;-69
2021/10/12 01:05:14;;;;;;;19.30;4.35;;;;;;;11.61;78.13;102208.78;5036336;28;20049;-68
2021/10/12 01:07:41;;;;;;;10.63;3.20;;;;;;;11.66;77.77;102200.50;5036049;28;20704;-69
2021/10/12 01:10:09;;;;;;;17.63;4.45;;;;;;;11.82;77.21;102193.78;5037814;28;20033;-68
2021/10/12 01:12:38;;;;;;;10.65;3.67;;;;;;;11.62;77.91;102191.09;5036710;28;20045;-69
2021/10/12 01:15:07;;;;;;;16.30;3.75;;;;;;;11.50;78.37;102204.41;5037724;28;20045;-68
2021/10/12 01:17:35;;;;;;;15.32;3.78;;;;;;;11.38;78.88;102192.88;5037608;28;20061;-69
2021/10/12 01:20:08;;;;;;;15.75;3.83;;;;;;;11.16;79.94;102187.72;5037676;28;20496;-68
2021/10/12 01:22:39;;;;;;;15.25;4.07;;;;;;;11.53;79.16;102190.03;5036812;28;20060;-68
2021/10/12 01:25:07;;;;;;;16.00;4.30;;;;;;;11.38;78.69;102196.47;5037586;28;20497;-69
2021/10/12 01:27:34;;;;;;;11.63;3.97;;;;;;;11.22;79.29;102192.13;5037502;28;20053;-68
2021/10/12 01:30:03;;;;;;;17.48;4.25;;;;;;;11.08;79.46;102185.53;5037545;28;20060;-69
2021/10/12 01:32:31;;;;;;;13.48;4.20;;;;;;;10.99;80.24;102177.03;5037343;28;20053;-69
2021/10/12 01:34:59;;;;;;;17.88;4.35;;;;;;;10.96;80.51;102174.84;5035930;28;20061;-69
2021/10/12 01:37:30;;;;;;;14.38;3.55;;;;;;;10.95;80.71;102167.66;5037016;28;20410;-69
2021/10/12 01:39:57;;;;;;;;;;;;;;;10.87;80.96;102156.38;5046148;28;20045;-68
2021/10/12 01:42:25;;;;;;;17.13;3.92;;;;;;;10.66;81.23;102147.34;5040898;28;20307;-69
2021/10/12 01:44:53;;;;;;;11.70;3.90;;;;;;;10.94;81.76;102141.22;5037233;28;20145;-69
2021/10/12 01:47:20;;;;;;;11.27;3.33;;;;;;;11.01;80.85;102152.75;5021440;28;20058;-68
2021/10/12 01:49:48;;;;;;;15.50;4.05;;;;;;;10.80;80.78;102148.41;5016865;28;20058;-69
2021/10/12 01:52:15;;;;;;;14.10;3.95;;;;;;;10.73;81.82;102147.88;5017286;28;20045;-69
2021/10/12 01:54:42;;;;;;;15.68;4.32;;;;;;;10.49;82.15;102149.59;5017356;28;20050;-68
2021/10/12 01:57:10;;;;;;;15.95;3.80;;;;;;;10.33;83.56;102147.97;5017597;28;20449;-68
2021/10/12 01:59:37;;;;;;;14.60;4.43;;;;;;;10.44;83.30;102163.38;5027573;28;20056;-69
2021/10/12 02:02:05;;;;;;;20.52;3.88;;;;;;;10.51;83.42;102158.41;5036890;28;20045;-69
2021/10/12 02:04:32;;;;;;;11.85;3.40;;;;;;;10.55;82.62;102153.19;5036640;28;20053;-69
2021/10/12 02:07:00;;;;;;;16.95;4.00;;;;;;;10.65;82.40;102151.19;5036743;28;20053;-68
2021/10/12 02:09:27;;;;;;;12.27;3.83;;;;;;;10.48;82.99;102163.66;5035389;28;20056;-69
2021/10/12 02:11:55;;;;;;;13.32;3.67;;;;;;;10.43;83.43;102167.22;5035458;28;20068;-69
2021/10/12 02:14:22;;;;;;;14.00;3.80;;;;;;;10.46;83.19;102161.16;5036519;28;20056;-69
2021/10/12 02:16:51;;;;;;;17.05;3.58;;;;;;;10.48;82.83;102155.38;5036020;28;21076;-68
2021/10/12 02:19:18;;;;;;;14.52;3.95;;;;;;;10.63;82.84;102145.16;5034344;28;20064;-69
2021/10/12 02:21:45;;;;;;;14.70;4.00;;;;;;;10.33;82.97;102153.47;5018372;28;20053;-69
2021/10/12 02:24:13;;;;;;;14.77;3.65;;;;;;;10.55;82.57;102140.19;5036417;28;20588;-69
2021/10/12 02:26:40;;;;;;;17.50;4.55;;;;;;;10.98;81.36;102133.19;5035090;28;20052;-69
2021/10/12 02:29:07;;;;;;;15.45;3.85;;;;;;;10.85;81.37;102120.84;5018757;28;20064;-68
2021/10/12 02:31:35;;;;;;;13.38;3.50;;;;;;;10.83;80.65;102117.53;5036758;28;20056;-69
2021/10/12 02:34:02;;;;;;;13.85;3.42;;;;;;;10.87;80.43;102115.03;5036659;28;20053;-68
2021/10/12 02:36:30;;;;;;;12.52;3.38;;;;;;;10.81;80.20;102119.75;5034040;28;20065;-68
2021/10/12 02:38:57;;;;;;;11.30;4.00;;;;;;;10.76;80.37;102139.06;5040796;28;20067;-68
2021/10/12 02:41:24;;;;;;;12.77;3.53;;;;;;;10.45;81.82;102145.75;5054567;28;20538;-68
2021/10/12 02:43:52;;;;;;;17.38;4.47;;;;;;;10.37;82.33;102146.31;5056123;28;20528;-68
2021/10/12 02:46:19;;;;;;;14.30;3.75;;;;;;;10.38;82.79;102147.13;5028214;28;20054;-68
2021/10/12 02:48:48;;;;;;;10.23;3.30;;;;;;;10.18;82.96;102135.03;5015787;28;20069;-70
2021/10/12 02:51:15;;;;;;;11.82;3.85;;;;;;;10.47;84.04;102126.19;5031679;28;20485;-69
2021/10/12 02:53:43;;;;;;;11.82;3.50;;;;;;;10.42;82.06;102117.94;5036060;28;20523;-68
2021/10/12 02:56:10;;;;;;;17.40;4.03;;;;;;;10.31;83.29;102117.13;5036114;28;20056;-69
2021/10/12 02:58:37;;;;;;;15.30;4.18;;;;;;;10.31;82.67;102122.63;5035536;28;20465;-68
2021/10/12 03:01:04;;;;;;;12.77;3.33;;;;;;;10.22;82.93;102134.50;5034487;28;20045;-69
2021/10/12 03:03:32;;;;;;;13.30;3.58;;;;;;;10.13;83.85;102128.69;5035780;28;20536;-68
2021/10/12 03:05:59;;;;;;;13.07;3.53;;;;;;;10.30;83.35;102118.22;5034501;28;20053;-73
2021/10/12 03:08:26;;;;;;;15.05;3.67;;;;;;;10.24;83.40;102113.81;5033961;28;20068;-68
2021/10/12 03:10:54;;;;;;;10.25;3.05;;;;;;;10.50;83.19;102128.38;5035715;28;20404;-69
2021/10/12 03:13:21;;;;;;;12.50;3.63;;;;;;;10.30;82.75;102123.75;5035551;28;20053;-68
2021/10/12 03:15:49;;;;;;;13.25;3.92;;;;;;;10.36;83.06;102133.63;5034612;28;20056;-68
2021/10/12 03:18:16;;;;;;;14.43;3.45;;;;;;;10.08;82.77;102136.91;5035674;28;20076;-67
2021/10/12 03:20:43;;;;;;;11.57;3.17;;;;;;;10.06;83.26;102128.09;5036289;28;20049;-71
2021/10/12 03:23:11;;;;;;;13.38;3.10;;;;;;;10.05;84.28;102110.78;5035899;28;20053;-69
2021/10/12 03:25:38;;;;;;;13.68;3.92;;;;;;;10.33;83.35;102106.66;5035568;28;20048;-68
2021/10/12 03:28:05;;;;;;;14.82;3.85;;;;;;;10.26;82.78;102099.78;5035326;28;20050;-68
2021/10/12 03:30:33;;;;;;;14.75;3.28;;;;;;;10.43;82.33;102095.59;5035199;28;20516;-68
2021/10/12 03:33:00;;;;;;;15.32;4.10;;;;;;;10.23;82.71;102087.41;5035186;28;20511;-69
2021/10/12 03:35:36;;;;;;;15.18;3.88;;;;;;;10.37;82.42;102085.72;5034977;28;20069;-69
2021/10/12 03:38:04;;;;;;;16.30;3.75;;;;;;;10.46;81.87;102088.72;5036032;28;20057;-68
2021/10/12 03:40:32;;;;;;;25.58;4.50;;;;;;;10.40;81.57;102089.84;5050768;28;20060;-68
2021/10/12 03:43:00;;;;;;;17.38;3.55;;;;;;;10.36;81.38;102103.34;5035299;28;20061;-68
2021/10/12 03:45:27;;;;;;;16.38;3.92;;;;;;;10.21;82.61;102089.59;5027127;28;20417;-69
2021/10/12 03:47:55;;;;;;;18.45;4.72;;;;;;;10.30;82.26;102093.44;5015007;28;20042;-68
2021/10/12 03:50:22;;;;;;;14.18;4.25;;;;;;;10.31;82.06;102103.34;5030430;28;20512;-68
2021/10/12 03:52:50;;;;;;;12.43;3.47;;;;;;;10.00;82.88;102099.78;5015429;28;20046;-68
2021/10/12 03:55:17;;;;;;;13.80;3.85;;;;;;;10.19;83.21;102095.38;5030435;28;20390;-69
2021/10/12 03:57:44;;;;;;;22.10;4.80;;;;;;;10.07;83.41;102091.22;5018559;28;20045;-68
2021/10/12 04:00:12;;;;;;;14.65;3.80;;;;;;;10.60;82.04;102092.53;5033378;28;20068;-69
2021/10/12 04:02:39;;;;;;;12.82;3.50;;;;;;;10.56;81.43;102096.97;5035084;28;20107;-68
2021/10/12 04:05:07;;;;;;;13.07;3.88;;;;;;;10.32;81.66;102095.91;5033536;28;20061;-68
2021/10/12 04:07:35;;;;;;;13.02;3.65;;;;;;;10.34;81.86;102089.00;5033460;28;20572;-66
2021/10/12 04:10:03;;;;;;;11.82;3.72;;;;;;;10.35;82.50;102089.84;5016841;28;20064;-66
2021/10/12 04:12:32;;;;;;;13.85;4.78;;;;;;;10.62;81.40;102090.31;5037856;28;20050;-69
2021/10/12 04:14:59;;;;;;;12.65;3.53;;;;;;;10.64;81.10;102088.09;5038776;28;20050;-69
2021/10/12 04:17:26;;;;;;;13.00;3.60;;;;;;;10.82;80.20;102085.56;5038268;28;20052;-69
2021/10/12 04:19:54;;;;;;;12.13;3.53;;;;;;;10.65;79.96;102078.75;5038556;28;20060;-68
2021/10/12 04:22:21;;;;;;;14.95;3.72;;;;;;;10.40;81.13;102078.81;5038795;28;20052;-68
2021/10/12 04:24:49;;;;;;;15.88;3.75;;;;;;;10.67;80.37;102068.28;5038838;28;20045;-69
2021/10/12 04:27:17;;;;;;;15.13;3.38;;;;;;;10.79;79.51;102074.28;5038419;28;20056;-69
2021/10/12 04:29:44;;;;;;;10.48;3.60;;;;;;;10.77;78.96;102088.34;5038680;28;20409;-66
2021/10/12 04:32:12;;;;;;;17.88;4.05;;;;;;;10.61;79.44;102091.44;5038302;28;20148;-67
2021/10/12 04:34:39;;;;;;;12.25;3.90;;;;;;;10.49;79.92;102099.19;5036688;28;20053;-67
2021/10/12 04:37:07;;;;;;;13.38;3.35;;;;;;;10.63;79.51;102098.31;5036707;28;20057;-67
2021/10/12 04:39:34;;;;;;;13.07;3.83;;;;;;;10.18;81.04;102096.47;5043736;28;20053;-67
2021/10/12 04:42:01;;;;;;;10.60;3.53;;;;;;;10.43;81.34;102089.25;5046663;28;20052;-66
2021/10/12 04:44:31;;;;;;;16.00;4.60;;;;;;;10.24;81.03;102086.28;5032145;28;20061;-67
2021/10/12 04:46:59;;;;;;;13.33;3.77;;;;;;;10.35;81.03;102087.91;5014848;28;20070;-67
2021/10/12 04:49:26;;;;;;;13.82;4.20;;;;;;;10.38;81.07;102081.00;5027015;28;20308;-67
2021/10/12 04:51:53;;;;;;;15.82;4.35;;;;;;;10.18;81.41;102079.16;5038194;28;20041;-66
2021/10/12 04:54:21;;;;;;;14.45;4.28;;;;;;;10.31;81.44;102091.50;5038191;28;20461;-66
2021/10/12 04:56:48;;;;;;;17.67;4.55;;;;;;;10.52;80.94;102093.09;5038120;28;20049;-67
2021/10/12 04:59:15;;;;;;;16.17;4.22;;;;;;;10.64;80.17;102094.44;5038152;28;20042;-67
2021/10/12 05:01:42;;;;;;;12.80;3.92;;;;;;;10.44;80.50;102097.28;5036749;28;20049;-67
2021/10/12 05:04:10;;;;;;;16.42;4.45;;;;;;;10.16;81.05;102084.09;5037847;28;20448;-67
2021/10/12 05:06:37;;;;;;;12.38;4.38;;;;;;;10.34;81.26;102080.75;5037938;28;20045;-67
2021/10/12 05:09:05;;;;;;;12.43;3.67;;;;;;;10.56;79.95;102077.66;5037646;28;20492;-67
2021/10/12 05:11:33;;;;;;;11.50;3.85;;;;;;;10.74;79.06;102082.59;5038111;28;20469;-67
2021/10/12 05:14:00;;;;;;;14.07;4.07;;;;;;;10.58;78.95;102083.72;5037967;28;20080;-67
2021/10/12 05:16:29;;;;;;;14.02;4.88;;;;;;;10.48;80.04;102086.53;5037745;28;20064;-67
2021/10/12 05:18:59;;;;;;;10.35;3.75;;;;;;;10.49;79.76;102086.25;5037558;28;20057;-67
2021/10/12 05:21:30;;;;;;;23.98;6.63;;;;;;;10.49;79.53;102089.00;5037768;28;20060;-66
2021/10/12 05:23:59;;;;;;;13.52;4.38;;;;;;;10.58;79.64;102076.31;5036116;28;20045;-67
2021/10/12 05:26:26;;;;;;;12.55;4.10;;;;;;;10.58;79.38;102078.22;5037260;28;20053;-66
2021/10/12 05:28:54;;;;;;;16.27;4.30;;;;;;;10.68;78.98;102080.94;5035114;28;20053;-67
2021/10/12 05:31:21;;;;;;;14.32;4.45;;;;;;;10.88;78.14;102076.16;5036882;28;20045;-67
2021/10/12 05:33:49;;;;;;;12.15;4.32;;;;;;;10.69;77.81;102077.91;5036920;28;20054;-67
2021/10/12 05:36:18;;;;;;;19.08;5.15;;;;;;;10.36;79.46;102066.69;5036389;28;20072;-66
2021/10/12 05:38:46;;;;;;;16.35;4.63;;;;;;;10.41;79.54;102064.75;5038911;28;20049;-68
2021/10/12 05:41:14;;;;;;;16.58;4.50;;;;;;;10.63;79.42;102069.94;5041416;28;20428;-67
2021/10/12 05:43:41;;;;;;;20.55;5.10;;;;;;;10.50;79.46;102073.28;5037857;28;20053;-67
2021/10/12 05:46:09;;;;;;;14.95;4.47;;;;;;;10.48;79.59;102081.81;5032990;28;20061;-66
2021/10/12 05:48:36;;;;;;;16.95;4.78;;;;;;;10.36;79.46;102085.97;5031021;28;20050;-67
2021/10/12 05:51:09;;;;;;;15.77;4.80;;;;;;;10.35;80.13;102071.41;5036921;28;20049;-66
2021/10/12 05:53:49;;;;;;;13.75;4.95;;;;;;;10.49;80.83;102077.13;5034052;28;20389;-67
2021/10/12 05:58:53;;;;;;;18.42;4.47;;;;;;;10.46;79.63;102080.47;5024579;28;20041;-66
2021/10/12 06:01:25;;;;;;;15.00;4.25;;;;;;;10.97;79.09;102066.19;5017165;28;20042;-66
2021/10/12 06:03:52;;;;;;;20.92;4.75;;;;;;;10.88;77.71;102078.91;5028615;28;20053;-65
2021/10/12 06:06:20;;;;;;;17.00;5.03;;;;;;;10.90;78.05;102084.16;5036431;28;20057;-66
2021/10/12 06:08:47;;;;;;;12.77;4.60;;;;;;;10.84;78.67;102083.38;5035358;28;20045;-65
2021/10/12 06:11:15;;;;;;;15.70;4.55;;;;;;;10.51;79.67;102072.19;5036369;28;20057;-65
2021/10/12 06:13:42;;;;;;;17.90;6.07;;;;;;;10.39;80.43;102072.47;5034565;28;20425;-69
2021/10/12 06:16:09;;;;;;;15.80;5.07;;;;;;;10.33;80.24;102065.34;5034641;28;20053;-65
2021/10/12 06:18:37;;;;;;;17.10;4.80;;;;;;;10.47;79.60;102068.31;5035950;28;20057;-66
2021/10/12 06:21:04;;;;;;;16.70;5.45;;;;;;;10.71;83.52;102075.69;5034642;28;20053;-67
2021/10/12 06:23:31;;;;;;;17.38;5.63;;;;;;;10.75;84.43;102075.94;5033898;28;20055;-64
2021/10/12 06:25:59;;;;;;;13.18;4.88;;;;;;;10.76;83.49;102074.84;5035923;28;20463;-66
2021/10/12 06:28:28;;;;;;;16.40;4.82;;;;;;;10.84;82.71;102071.50;5031357;28;20055;-64
2021/10/12 06:30:55;;;;;;;16.30;4.90;;;;;;;10.94;80.18;102066.78;5029486;28;20049;-68
2021/10/12 06:33:25;;;;;;;13.65;5.03;;;;;;;11.15;78.72;102068.31;5015595;28;20041;-67
2021/10/12 06:35:52;;;;;;;16.63;5.65;;;;;;;10.98;77.57;102076.09;5034166;28;20103;-65
2021/10/12 06:38:19;;;;;;;13.55;5.30;;;;;;;10.67;78.67;102073.78;5035468;28;20045;-66
2021/10/12 06:40:49;;;;;;;21.67;6.40;;;;;;;10.57;79.15;102069.13;5041169;28;20064;-66
2021/10/12 06:43:17;;;;;;;17.42;5.60;;;;;;;10.40;79.33;102074.13;5034640;28;20108;-66
2021/10/12 06:45:44;;;;;;;16.80;6.10;;;;;;;10.74;79.34;102071.56;5035607;28;20057;-67
2021/10/12 06:48:12;;;;;;;13.23;5.60;;;;;;;10.86;78.47;102078.38;5035830;28;20060;-67
2021/10/12 06:50:39;;;;;;;17.50;5.80;;;;;;;10.73;78.11;102073.47;5034673;28;20045;-66
2021/10/12 06:53:07;;;;;;;16.00;5.88;;;;;;;10.73;78.05;102080.91;5034033;28;20497;-67
2021/10/12 06:55:34;;;;;;;19.23;5.75;;;;;;;10.70;78.17;102092.50;5035626;28;20053;-67
2021/10/12 06:58:01;;;;;;;17.85;5.82;;;;;;;10.69;79.03;102090.84;5035476;28;20053;-69
2021/10/12 07:00:28;;;;;;;18.85;5.65;;;;;;;10.72;78.33;102082.03;5033867;28;20065;-67
2021/10/12 07:02:57;;;;;;;22.52;6.82;;;;;;;10.82;77.95;102090.25;5033513;28;20476;-66
2021/10/12 07:05:24;;;;;;;21.38;6.53;;;;;;;11.01;77.97;102083.00;5035108;28;20060;-66
2021/10/12 07:07:52;;;;;;;16.15;5.88;;;;;;;10.88;77.62;102080.88;5035493;28;20503;-66
2021/10/12 07:10:19;;;;;;;14.88;5.53;;;;;;;10.79;77.45;102080.59;5035919;28;20053;-65
2021/10/12 07:12:46;;;;;;;16.23;6.13;;;;;;;10.56;78.49;102075.75;5035832;28;20045;-65
2021/10/12 07:15:13;;;;;;;23.40;7.03;;;;;;;10.68;78.60;102067.16;5036604;28;20101;-65
2021/10/12 07:17:41;;;;;;;15.73;7.10;;;;;;;10.86;78.01;102059.06;5038406;28;20053;-66
2021/10/12 07:20:08;;;;;;;14.57;6.25;;;;;;;10.85;77.38;102060.19;5049505;28;20102;-66
2021/10/12 07:22:36;;;;;;;16.75;5.70;;;;;;;10.70;77.79;102059.44;4999961;28;20065;-66
2021/10/12 07:25:06;;;;;;;22.33;7.00;;;;;;;10.81;77.55;102047.28;5033196;28;20409;-66
2021/10/12 07:27:34;;;;;;;18.30;6.15;;;;;;;10.88;77.24;102051.34;5034478;28;20050;-67
2021/10/12 07:30:19;;;;;;;24.45;8.18;;;;;;;10.96;77.24;102047.19;5015282;28;20054;-67
2021/10/12 07:32:46;;;;;;;23.60;6.53;;;;;;;11.21;76.42;102047.88;5033061;28;20045;-67
2021/10/12 07:35:13;;;;;;;16.88;6.40;;;;;;;11.38;75.89;102052.19;5034205;28;20097;-67
2021/10/12 07:37:42;;;;;;;18.35;6.65;;;;;;;11.26;76.55;102036.78;5034330;28;20041;-66
2021/10/12 07:40:11;;;;;;;22.70;7.38;;;;;;;11.18;76.33;102051.19;5037959;28;20053;-67
2021/10/12 07:42:39;;;;;;;21.00;7.20;;;;;;;11.25;76.18;102048.94;5038561;28;20400;-66
2021/10/12 07:45:07;;;;;;;19.27;7.78;;;;;;;11.42;76.01;102044.97;5032901;28;20512;-67
2021/10/12 07:47:34;;;;;;;17.52;7.07;;;;;;;11.29;75.84;102041.75;5028032;28;20061;-66
2021/10/12 07:50:02;;;;;;;27.00;8.10;;;;;;;11.47;75.26;102047.72;5032915;28;20080;-66
2021/10/12 07:52:32;;;;;;;25.92;8.05;;;;;;;11.58;75.13;102047.34;5034708;28;20045;-66
2021/10/12 07:57:33;;;;;;;14.45;7.57;;;;;;;11.20;77.28;102048.97;5032667;28;20300;-69
2021/10/12 08:00:00;;;;;;;22.30;7.43;;;;;;;11.40;77.37;102050.78;5031915;28;20045;-65
2021/10/12 08:02:38;;;;;;;19.90;7.30;;;;;;;11.61;76.60;102049.50;5029862;28;20041;-66
2021/10/12 08:05:06;;;;;;;24.98;8.27;;;;;;;11.72;75.78;102044.75;5032853;28;20060;-66
2021/10/12 08:07:33;;;;;;;18.67;7.18;;;;;;;11.85;75.05;102035.81;5033126;28;20421;-66
2021/10/12 08:10:18;;;;;;;15.00;6.38;;;;;;;12.12;74.60;102033.34;5033834;28;20046;-65
2021/10/12 08:12:47;;;;;;;23.02;7.70;;;;;;;11.71;75.90;102040.38;5033841;28;20052;-65
2021/10/12 08:15:14;;;;;;;20.60;7.77;;;;;;;11.40;77.58;102045.28;5017060;28;20046;-66
2021/10/12 08:17:42;;;;;;;17.30;7.07;;;;;;;11.51;77.53;102033.03;5035026;28;20507;-66
2021/10/12 08:20:09;;;;;;;14.75;7.07;;;;;;;11.74;76.71;102034.25;5032912;28;20046;-66
2021/10/12 08:22:36;;;;;;;22.83;8.40;;;;;;;12.06;75.24;102032.59;5034936;28;20527;-66
2021/10/12 08:25:08;;;;;;;18.60;7.93;;;;;;;12.30;73.99;102027.91;5034518;28;20045;-66
2021/10/12 08:27:36;;;;;;;16.55;7.55;;;;;;;12.53;73.30;102026.28;5027973;28;20512;-67
2021/10/12 08:30:05;;;;;;;30.63;9.07;;;;;;;12.60;72.67;102031.44;5033335;28;20481;-66
2021/10/12 08:32:32;;;;;;;20.52;6.88;;;;;;;12.76;73.00;102035.66;5030285;28;20061;-65
2021/10/12 08:35:00;;;;;;;18.63;7.60;;;;;;;12.55;72.92;102029.56;5033621;28;20496;-64
2021/10/12 08:37:27;;;;;;;23.05;8.30;;;;;;;12.34;73.99;102028.94;5033017;28;20049;-65
2021/10/12 08:39:54;;;;;;;18.85;8.15;;;;;;;12.41;73.27;102023.91;5035177;28;20044;-65
2021/10/12 08:42:39;;;;;;;17.65;8.68;;;;;;;12.30;73.49;102018.78;5032112;28;20057;-66
2021/10/12 08:45:08;;;;;;;21.58;10.35;;;;;;;12.40;73.65;102013.16;5031176;28;20057;-65
2021/10/12 08:47:36;;;;;;;25.67;8.90;;;;;;;12.54;73.15;102007.72;5033721;28;20060;-65
2021/10/12 08:50:11;;;;;;;22.23;8.70;;;;;;;12.69;72.94;102013.09;5033749;28;20053;-64
2021/10/12 08:52:38;;;;;;;23.05;8.55;;;;;;;12.73;72.36;102008.59;5034523;28;20060;-65
2021/10/12 08:55:06;;;;;;;22.83;8.60;;;;;;;12.57;73.09;102004.41;5034679;28;20053;-65
2021/10/12 08:57:40;;;;;;;19.98;8.45;;;;;;;12.78;73.39;102003.00;5035529;28;20053;-65
2021/10/12 09:00:09;;;;;;;22.33;8.75;;;;;;;12.88;72.67;102005.63;5037127;28;20053;-65
2021/10/12 09:02:56;;;;;;;13.98;8.05;;;;;;;12.73;72.83;101995.59;5036369;28;20072;-65
2021/10/12 09:05:24;;;;;;;18.67;7.35;;;;;;;12.79;73.26;101988.06;5034996;28;20053;-64
2021/10/12 09:07:52;;;;;;;22.58;7.85;;;;;;;12.81;72.95;101994.94;5036849;28;20049;-66
2021/10/12 09:10:23;;;;;;;23.38;7.47;;;;;;;12.65;73.58;101990.75;5037544;28;20041;-65
2021/10/12 09:12:52;;;;;;;17.35;6.93;;;;;;;12.89;73.13;101987.91;5038114;28;20117;-65
2021/10/12 09:15:20;;;;;;;29.25;8.23;;;;;;;12.84;73.30;101985.22;5037297;28;20056;-65
2021/10/12 09:17:51;;;;;;;18.25;7.70;;;;;;;12.70;73.56;101987.91;5037020;28;20060;-64
2021/10/12 09:20:25;;;;;;;23.15;7.88;;;;;;;12.88;73.20;101980.75;5037055;28;20045;-65
2021/10/12 09:23:10;;;;;;;23.80;7.68;;;;;;;12.99;73.39;101977.53;5036511;28;20064;-65
2021/10/12 09:25:44;;;;;;;15.05;6.65;;;;;;;12.94;72.78;101977.59;5036161;28;20045;-65
2021/10/12 09:28:24;;;;;;;15.48;6.35;;;;;;;12.93;72.91;101980.69;5036902;28;20053;-66
2021/10/12 09:30:54;;;;;;;21.73;5.57;;;;;;;12.72;73.45;101984.84;5041451;28;20049;-66
2021/10/12 09:33:22;;;;;;;15.52;5.47;;;;;;;12.72;73.61;101977.38;5036210;28;20060;-64
2021/10/12 09:35:49;;;;;;;17.98;5.70;;;;;;;12.86;73.40;101978.28;5035504;28;20045;-65
2021/10/12 09:38:16;;;;;;;25.85;5.93;;;;;;;12.63;74.18;101979.16;5036865;28;20061;-65
2021/10/12 09:40:46;;;;;;;20.88;5.68;;;;;;;12.86;73.47;101972.75;5036214;28;20053;-65
2021/10/12 09:43:18;;;;;;;25.10;5.70;;;;;;;13.03;72.92;101970.31;5037320;28;20080;-64
2021/10/12 09:45:46;;;;;;;20.95;6.40;;;;;;;13.15;72.72;101973.44;5036113;28;20060;-65
2021/10/12 09:48:31;;;;;;;17.23;6.30;;;;;;;12.85;73.84;101967.53;5037343;28;20061;-65
2021/10/12 09:51:17;;;;;;;20.38;7.22;;;;;;;12.89;73.99;101969.38;5037117;28;20053;-65
2021/10/12 09:53:46;;;;;;;16.83;6.65;;;;;;;13.00;74.14;101967.28;5037484;28;20045;-65
2021/10/12 09:56:13;;;;;;;19.33;5.53;;;;;;;13.20;73.58;101965.06;5037437;28;20065;-65
2021/10/12 09:58:43;;;;;;;14.90;6.20;;;;;;;13.44;73.19;101962.22;5035846;28;20064;-66
2021/10/12 10:01:11;;;;;;;20.65;6.43;;;;;;;13.29;72.67;101959.66;5036578;28;20057;-65
2021/10/12 10:03:39;;;;;;;14.40;5.78;;;;;;;13.26;73.54;101965.81;5036385;28;20524;-66
2021/10/12 10:06:11;;;;;;;16.30;6.82;;;;;;;13.61;72.68;101958.88;5037405;28;20058;-65
2021/10/12 10:08:44;;;;;;;15.60;6.38;;;;;;;13.54;71.66;101960.09;5029082;28;20046;-65
2021/10/12 10:11:36;;;;;;;19.08;7.25;;;;;;;13.54;72.79;101962.03;5015787;28;20057;-66
2021/10/12 10:14:05;;;;;;;18.42;7.43;;;;;;;13.45;73.25;101953.59;5017160;28;20046;-65
2021/10/12 10:16:33;;;;;;;17.10;6.85;;;;;;;13.90;71.89;101956.66;5015828;28;20054;-66
2021/10/12 10:19:01;;;;;;;20.00;7.07;;;;;;;13.65;72.63;101944.09;5015569;28;20061;-65
2021/10/12 10:21:28;;;;;;;20.65;6.80;;;;;;;13.93;72.10;101947.75;5016834;28;20054;-66
2021/10/12 10:24:00;;;;;;;24.50;7.95;;;;;;;14.09;71.39;101952.69;5019685;28;20037;-66
2021/10/12 10:26:31;;;;;;;19.67;6.85;;;;;;;13.85;71.76;101940.97;5026558;28;20045;-66
2021/10/12 10:29:36;;;;;;;24.35;7.30;;;;;;;13.89;71.45;101944.78;5036438;28;20073;-66
2021/10/12 10:32:22;;;;;;;20.08;6.50;;;;;;;13.68;71.84;101937.97;5034809;28;20046;-66
2021/10/12 10:35:01;;;;;;;24.33;7.35;;;;;;;13.64;72.49;101927.78;5017547;28;20052;-65
2021/10/12 10:37:30;;;;;;;27.23;7.25;;;;;;;13.89;71.45;101927.34;5036245;28;20098;-65
2021/10/12 10:40:00;;;;;;;19.75;6.93;;;;;;;13.94;71.55;101916.97;5044464;28;20046;-67
2021/10/12 10:42:27;;;;;;;21.53;7.43;;;;;;;14.02;71.29;101921.78;5046127;28;20052;-66
2021/10/12 10:45:05;;;;;;;17.30;6.70;;;;;;;14.32;70.91;101910.13;5034920;28;20056;-66
2021/10/12 10:47:44;;;;;;;24.08;8.00;;;;;;;14.37;69.91;101917.50;5034388;28;20053;-66
2021/10/12 10:50:37;;;;;;;19.58;6.43;;;;;;;14.17;69.52;101923.44;5035908;28;20514;-66
2021/10/12 10:53:08;;;;;;;17.75;5.93;;;;;;;13.94;69.67;101913.38;5033526;28;20057;-66
2021/10/12 10:55:41;;;;;;;18.25;8.18;;;;;;;14.02;70.17;101915.44;5035893;28;20064;-66
2021/10/12 10:58:19;;;;;;;19.02;6.82;;;;;;;14.07;68.87;101918.91;5035903;28;20049;-67
2021/10/12 11:00:54;;;;;;;21.85;5.75;;;;;;;14.04;68.56;101927.03;5035727;28;20053;-65
2021/10/12 11:03:31;;;;;;;20.45;5.53;;;;;;;14.17;68.46;101915.97;5033877;28;20049;-64
2021/10/12 11:06:00;;;;;;;17.25;5.22;;;;;;;14.12;68.10;101909.69;5035801;28;20056;-66
2021/10/12 11:08:29;;;;;;;20.73;5.40;;;;;;;14.17;68.38;101912.38;5035961;28;20045;-66
2021/10/12 11:10:58;;;;;;;14.10;4.72;;;;;;;14.23;67.86;101911.94;5034173;28;20295;-65
2021/10/12 11:13:43;;;;;;;17.75;5.97;;;;;;;14.49;66.49;101901.16;5034262;28;20409;-66
2021/10/12 11:16:16;;;;;;;19.98;5.85;;;;;;;14.28;67.35;101897.19;5035110;28;20052;-65
2021/10/12 11:18:46;;;;;;;17.20;6.25;;;;;;;14.25;68.10;101895.00;5034185;28;20045;-66
2021/10/12 11:21:16;;;;;;;18.92;7.97;;;;;;;14.34;67.60;101896.78;5034707;28;20042;-66
2021/10/12 11:23:51;;;;;;;24.75;8.00;;;;;;;14.39;67.90;101887.53;5034673;28;20053;-66
2021/10/12 11:26:19;;;;;;;20.20;8.07;;;;;;;14.81;67.32;101889.06;5034508;28;20056;-65
2021/10/12 11:28:53;;;;;;;19.52;8.07;;;;;;;15.13;65.37;101889.66;5033535;28;20144;-66
2021/10/12 11:31:23;;;;;;;23.08;6.95;;;;;;;15.34;64.24;101889.97;5033009;28;20076;-64